Romney Marsh, United Kingdom
Current Conditions -  °F | °C
As of 9:20 AM on Friday 19 Dec 2014 (Local Time) from EGMD Reporting Station
Scattered Clouds Scattered Clouds  
Wind Chill: 55°   Ceiling: Unl
Heat Index: 55°   Visibility: 6mi
Dew Point: 54°   Wind: 15mph
Humidity: 94%   Direction: 270°W
Pressure: 29.88"   Gusts: NA
Location:  51°N, 0.91°E
Report Text: EGMD 190920Z 27013KT 9999 FEW007 SCT013 13/12 Q1012
Loading
Personal Weather Stations






























Interactive Weather Map New forecast layout! Learn more

10-Day Weather Forecast

Advertisements
Track Severe Weather on mobile